Home > Products > Valid Products > MTR

000
SAUS45 KRIW 180258
MTRP60
METAR KP60 180256Z AUTO 31003KT M01/M04 A2999 RMK AO1 SLP168
T10061039 55001





000
SAUS45 KRIW 180157
MTRP60
METAR KP60 180156Z AUTO 27003KT 04/M06 A2998 RMK AO1 SLP158
T00391056





000
SAUS45 KRIW 180057
MTRP60
METAR KP60 180056Z AUTO 25003KT 06/M06 A2998 RMK AO1 SLP160
T00611061





000
SAUS45 KRIW 172357
MTRP60
METAR KP60 172356Z AUTO VRB03KT 06/M06 A2999 RMK AO1 SLP162
T00611061 10083 20044 56006





000
SAUS45 KRIW 172257
MTRP60
METAR KP60 172256Z AUTO VRB05KT 07/M07 A3000 RMK AO1 SLP154
T00671067





000
SAUS45 KRIW 172158
MTRP60
METAR KP60 172156Z AUTO 22007KT 160V280 08/M07 A3000 RMK AO1 SLP147
T00781072





000
SAUS45 KRIW 172058
MTRP60
METAR KP60 172056Z AUTO VRB05G17KT 07/M08 A3001 RMK AO1 SLP149
T00721083 56005





000
SAUS45 KRIW 171958
MTRP60
METAR KP60 171956Z AUTO VRB05KT 06/M09 A3001 RMK AO1 SLP154
T00611089





000
SAUS45 KRIW 171858
MTRP60
METAR KP60 171856Z AUTO 21008KT 160V260 06/M10 A3002 RMK AO1 SLP156
T00561100





000
SAUS45 KRIW 171758
MTRP60
METAR KP60 171756Z AUTO VRB03KT 04/M10 A3003 RMK AO1 SLP163
T00441100 10050 21106 58008





000
SAUS45 KRIW 171658
MTRP60
METAR KP60 171656Z AUTO VRB03KT 01/M09 A3005 RMK AO1 SLP176
T00061089





000
SAUS45 KRIW 171558
MTRP60
METAR KP60 171556Z AUTO 10004KT M03/M12 A3006 RMK AO1 SLP192
T10281117





000
SAUS45 KRIW 171458
MTRP60
METAR KP60 171456Z AUTO 00000KT M06/M12 A3006 RMK AO1 SLP203
T10561117





000
SAUS45 KRIW 171358
MTRP60
METAR KP60 171356Z AUTO 00000KT M07/M11 A3006 RMK AO1 SLP201
T10721111





000
SAUS45 KRIW 171258
MTRP60
METAR KP60 171256Z AUTO 00000KT M10/M13 A3004 RMK AO1 SLP199
T11001128





000
SAUS45 KRIW 171057
MTRP60
METAR KP60 171056Z AUTO 00000KT M07/M10 A3003 RMK AO1 SLP185
T10671100





000
SAUS45 KRIW 170957
MTRP60
METAR KP60 170956Z AUTO 00000KT M06/M09 A3004 RMK AO1 SLP176
T10561089





000
SAUS45 KRIW 170858
MTRP60
METAR KP60 170856Z AUTO 00000KT M05/M09 A3003 RMK AO1 SLP182
T10501089 56001





000
SAUS45 KRIW 170758
MTRP60
METAR KP60 170756Z AUTO 00000KT M04/M09 A3003 RMK AO1 SLP182
T10441094





000
SAUS45 KRIW 170658
MTRP60
METAR KP60 170656Z AUTO 00000KT M04/M08 A3003 RMK AO1 SLP184
T10441083 400281111





000
SAUS45 KRIW 170557
MTRP60
METAR KP60 170556Z AUTO 00000KT M04/M09 A3004 RMK AO1 SLP183
T10391089 10022 21039 50003





000
SAUS45 KRIW 170457
MTRP60
METAR KP60 170456Z AUTO 00000KT M02/M09 A3004 RMK AO1 SLP191
T10171094





000
SAUS45 KRIW 170357
MTRP60
METAR KP60 170356Z AUTO 27006KT M02/M10 A3004 RMK AO1 SLP189
T10171100





000
SAUS45 KRIW 170257
MTRP60
METAR KP60 170256Z AUTO 00000KT M03/M09 A3003 RMK AO1 SLP198
T10281089 52008





000
SAUS45 KRIW 170158
MTRP60
METAR KP60 170156Z AUTO VRB04KT M01/M09 A3002 RMK AO1 SLP191
T10061094





000
SAUS45 KRIW 170057
MTRP60
METAR KP60 170056Z AUTO VRB05KT 01/M12 A3001 RMK AO1 SLP182
T00061117





000
SAUS45 KRIW 162357
MTRP60
METAR KP60 162356Z AUTO 27008KT 240V320 02/M13 A3000 RMK AO1 SLP179
T00171128 10028 21022 53000





000
SAUS45 KRIW 162258
MTRP60
METAR KP60 162256Z AUTO 28007G15KT 01/M13 A2999 RMK AO1 SLP174
T00111128





000
SAUS45 KRIW 162157
MTRP60
METAR KP60 162156Z AUTO VRB05KT 03/M13 A2998 RMK AO1 SLP167
T00281133





000
SAUS45 KRIW 162057
MTRP60
METAR KP60 162056Z AUTO VRB04KT 00/M09 A3000 RMK AO1 SLP186
T00001089 55000





000
SAUS45 KRIW 161958
MTRP60
METAR KP60 161956Z AUTO VRB04KT 00/M07 A2999 RMK AO1 SLP186
T00001072





000
SAUS45 KRIW 161858
MTRP60
METAR KP60 161856Z AUTO VRB03KT M01/M09 A3000 RMK AO1 SLP178
T10111094





000
SAUS45 KRIW 161758
MTRP60
METAR KP60 161756Z AUTO 11005KT M01/M09 A3000 RMK AO1 SLP172
T10111094 11006 21094 55000





000
SAUS45 KRIW 161657
MTRP60
METAR KP60 161656Z AUTO 10003KT M05/M09 A2999 RMK AO1 SLP182
T10501094





000
SAUS45 KRIW 161557
MTRP60
METAR KP60 161556Z AUTO 12004KT M06/M10 A2999 RMK AO1 SLP181
T10561100





000
SAUS45 KRIW 161457
MTRP60
METAR KP60 161456Z AUTO 00000KT M07/M09 A3000 RMK AO1 SLP187
T10721094





000
SAUS45 KRIW 161358
MTRP60
METAR KP60 161356Z AUTO 08003KT M09/M11 A2999 RMK AO1 SLP185
T10891106





000
SAUS45 KRIW 161258
MTRP60
METAR KP60 161256Z AUTO 31003KT M09/M11 A2998 RMK AO1 SLP180
T10941111





000
SAUS45 KRIW 161157
MTRP60
METAR KP60 161156Z AUTO 31003KT M08/M11 A2996 RMK AO1 SLP174 70012
T10831106 11044 21111





000
SAUS45 KRIW 160957
MTRP60
METAR KP60 160956Z AUTO 00000KT M08/M09 A2995 RMK AO1 SLP160
T10781094 $





000
SAUS45 KRIW 160858
MTRP60
METAR KP60 160856Z AUTO 00000KT M10/M11 A2995 RMK AO1 SLP161
T11001111 51018 $





000
SAUS45 KRIW 160757
MTRP60
METAR KP60 160756Z AUTO 00000KT M10/M12 A2993 RMK AO1 SLP154
T11001117 $





000
SAUS45 KRIW 160657
MTRP60
METAR KP60 160656Z AUTO 00000KT M08/M09 A2991 RMK AO1 SLP141
T10781094 400391094 $





000
SAUS45 KRIW 160557
MTRP60
METAR KP60 160556Z AUTO 28003KT M05/M08 A2988 RMK AO1 SLP116 60008
T10501078 10000 21056 51014





000
SAUS45 KRIW 160457
MTRP60
METAR KP60 160456Z AUTO VRB05KT M04/M07 A2986 RMK AO1 SLP112
T10441072





000
SAUS45 KRIW 160357
MTRP60
METAR KP60 160356Z AUTO 30003KT M04/M06 A2986 RMK AO1 SLP108
T10391061





000
SAUS45 KRIW 160257
MTRP60
METAR KP60 160256Z AUTO 00000KT M04/M06 A2983 RMK AO1 SLP116 P0007
60008 T10391056 51025





000
SAUS45 KRIW 160157
MTRP60
METAR KP60 160156Z AUTO VRB06KT M03/M05 A2981 RMK AO1 SLP111 P0001
T10281050





000
SAUS45 KRIW 160057
MTRP60
METAR KP60 160056Z AUTO VRB04KT M01/M04 A2977 RMK AO1 SLP101
T10111044





000
SAUS45 KRIW 152357
MTRP60
METAR KP60 152356Z AUTO 31008G17KT M01/M04 A2974 RMK AO1 SLP090
P0004 60004 T10111039 10033 21017 56010





000
SAUS45 KRIW 152257
MTRP60
METAR KP60 152256Z AUTO 28007G20KT 250V320 M01/M05 A2974 RMK AO1
SLP091 T10061050





000
SAUS45 KRIW 152157
MTRP60
METAR KP60 152156Z AUTO VRB03KT 01/M05 A2974 RMK AO1 SLP088
T00111050





000
SAUS45 KRIW 152058
MTRP60
METAR KP60 152056Z AUTO 26010G19KT 230V290 02/M07 A2978 RMK AO1 PK
WND 27026/2043 SLP096 T00171072 58024





000
SAUS45 KRIW 151958
MTRP60
METAR KP60 151956Z AUTO 23008G23KT 160V330 02/M08 A2981 RMK AO1
SLP105 T00171078





000
SAUS45 KRIW 151858
MTRP60
METAR KP60 151856Z AUTO 26010G26KT 200V320 02/M09 A2984 RMK AO1 PK
WND 29026/1848 SLP120 T00221094





000
SAUS45 KRIW 151758
MTRP60
METAR KP60 151756Z AUTO VRB05KT 03/M12 A2987 RMK AO1 SLP121
T00331117 10039 21083 56021





000
SAUS45 KRIW 151657
MTRP60
METAR KP60 151656Z AUTO VRB04KT 02/M11 A2988 RMK AO1 SLP128
T00221111





000
SAUS45 KRIW 151557
MTRP60
METAR KP60 151556Z AUTO VRB03KT 02/M13 A2991 RMK AO1 SLP133
T00221128





000
SAUS45 KRIW 151457
MTRP60
METAR KP60 151456Z AUTO 00000KT M03/M13 A2994 RMK AO1 SLP156
T10281128 58016





000
SAUS45 KRIW 151357
MTRP60
METAR KP60 151356Z AUTO 00000KT M06/M11 A2997 RMK AO1 SLP163
T10561111





000
SAUS45 KRIW 151257
MTRP60
METAR KP60 151256Z AUTO 00000KT M08/M11 A2999 RMK AO1 SLP170
T10781111





000
SAUS45 KRIW 151158
MTRP60
METAR KP60 151156Z AUTO 00000KT M08/M12 A3000 RMK AO1 SLP174
T10831117 11072 21094





000
SAUS45 KRIW 151057
MTRP60
METAR KP60 151056Z AUTO 00000KT M09/M12 A3004 RMK AO1 SLP186
T10891122 $





000
SAUS45 KRIW 150957
MTRP60
METAR KP60 150956Z AUTO 00000KT M09/M13 A3004 RMK AO1 SLP191
T10941128 $





000
SAUS45 KRIW 150857
MTRP60
METAR KP60 150856Z AUTO 00000KT M09/M12 A3006 RMK AO1 SLP197
T10891122 $





000
SAUS45 KRIW 150757
MTRP60
METAR KP60 150756Z AUTO 00000KT M07/M12 A3008 RMK AO1 SLP208
T10721122 $





000
SAUS45 KRIW 150657
MTRP60
METAR KP60 150656Z AUTO 00000KT M09/M13 A3010 RMK AO1 SLP235
T10891128 400331222 $





000
SAUS45 KRIW 150557
MTRP60
METAR KP60 150556Z AUTO 00000KT M08/M13 A3012 RMK AO1 SLP247
T10781128 10028 21078 58003





000
SAUS45 KRIW 150457
MTRP60
METAR KP60 150456Z AUTO 00000KT M07/M13 A3013 RMK AO1 SLP256
T10721128





000
SAUS45 KRIW 150357
MTRP60
METAR KP60 150356Z AUTO 00000KT M06/M14 A3015 RMK AO1 SLP271
T10561139





    US Dept of Commerce
    National Oceanic and Atmospheric Administration
    National Weather Service
    1325 East West Highway
    Silver Spring, MD 20910
    Page Author: NWS Internet Services Team
Disclaimer
Information Quality
Credits
Glossary
Privacy Policy
Freedom of Information Act (FOIA)
About Us
Career Opportunities